createdAt,value
2023-02-27T00:02:16.574Z,66.89
2023-02-27T00:04:43.306Z,66.84
2023-02-27T00:07:10.498Z,66.95
2023-02-27T00:09:38.273Z,67.06
2023-02-27T00:12:04.976Z,67.08
2023-02-27T00:14:31.724Z,66.92
2023-02-27T00:16:58.667Z,66.86
2023-02-27T00:19:25.557Z,66.69
2023-02-27T00:21:52.392Z,66.36
2023-02-27T00:24:19.337Z,66.36
2023-02-27T00:26:45.972Z,66.23
2023-02-27T00:29:12.628Z,65.88
2023-02-27T00:31:39.397Z,65.66
2023-02-27T00:34:06.074Z,65.50
2023-02-27T00:36:32.711Z,65.60
2023-02-27T00:38:59.520Z,65.53
2023-02-27T00:41:26.660Z,65.36
2023-02-27T00:43:53.460Z,65.33
2023-02-27T00:46:20.594Z,65.40
2023-02-27T00:48:47.277Z,65.60
2023-02-27T00:51:13.960Z,65.74
2023-02-27T00:53:41.518Z,65.84
2023-02-27T00:56:08.573Z,65.85
2023-02-27T00:58:35.242Z,65.59
2023-02-27T01:01:03.014Z,65.35
2023-02-27T01:03:29.740Z,65.62
2023-02-27T01:05:56.409Z,65.36
2023-02-27T01:08:23.419Z,65.24
2023-02-27T01:10:50.117Z,65.22
2023-02-27T01:13:16.756Z,64.94
2023-02-27T01:15:43.831Z,64.86
2023-02-27T01:18:10.500Z,64.88
2023-02-27T01:20:37.349Z,64.59
2023-02-27T01:23:04.310Z,64.64
2023-02-27T01:25:31.078Z,64.79
2023-02-27T01:27:57.773Z,64.87
2023-02-27T01:30:24.868Z,64.97
2023-02-27T01:32:51.640Z,65.15
2023-02-27T01:35:18.705Z,65.22
2023-02-27T01:37:45.757Z,65.23
2023-02-27T01:40:13.217Z,65.39
2023-02-27T01:42:39.894Z,65.45
2023-02-27T01:45:12.634Z,65.35
2023-02-27T01:47:46.315Z,65.51
2023-02-27T01:50:15.086Z,65.65
2023-02-27T01:52:44.648Z,65.67
2023-02-27T01:55:14.174Z,65.89
2023-02-27T01:57:43.382Z,66.03
2023-02-27T02:00:10.981Z,66.18
2023-02-27T02:02:40.803Z,66.34
2023-02-27T02:05:08.087Z,66.57
2023-02-27T02:07:41.063Z,66.55
2023-02-27T02:10:08.298Z,66.57
2023-02-27T02:12:39.347Z,66.53
2023-02-27T02:15:07.056Z,66.76
2023-02-27T02:17:44.316Z,66.92
2023-02-27T02:20:45.650Z,66.76
2023-02-27T02:23:30.756Z,66.76
2023-02-27T02:26:18.583Z,66.84
2023-02-27T02:29:12.782Z,66.99
2023-02-27T02:31:54.738Z,66.79
2023-02-27T02:34:42.845Z,66.61
2023-02-27T02:37:50.902Z,66.49
2023-02-27T02:40:40.522Z,66.64
2023-02-27T02:43:28.352Z,66.28
2023-02-27T02:46:05.740Z,66.47
2023-02-27T02:48:37.164Z,66.18
2023-02-27T02:51:28.016Z,66.47
2023-02-27T02:54:10.246Z,66.38
2023-02-27T02:56:59.815Z,66.46
2023-02-27T02:59:35.867Z,66.52
2023-02-27T03:02:12.551Z,66.66
2023-02-27T03:04:48.473Z,66.90
2023-02-27T03:07:34.571Z,66.94
2023-02-27T03:10:08.355Z,66.85
2023-02-27T03:12:39.215Z,66.85
2023-02-27T03:15:08.812Z,66.77
2023-02-27T03:17:53.130Z,66.97
2023-02-27T03:20:24.859Z,66.99
2023-02-27T03:22:58.062Z,67.16
2023-02-27T03:25:27.261Z,67.12
2023-02-27T03:28:07.217Z,67.21
2023-02-27T03:31:01.721Z,67.06
2023-02-27T03:33:31.690Z,66.92
2023-02-27T03:36:18.616Z,66.90
2023-02-27T03:38:47.670Z,66.74
2023-02-27T03:41:32.499Z,66.61
2023-02-27T03:44:29.697Z,66.18
2023-02-27T03:46:56.524Z,65.96
2023-02-27T03:49:23.436Z,65.70
2023-02-27T03:51:50.434Z,65.59
2023-02-27T03:54:22.773Z,65.38
2023-02-27T03:56:52.772Z,65.18
2023-02-27T03:59:19.627Z,65.03
2023-02-27T04:01:46.667Z,64.78
2023-02-27T04:04:15.854Z,64.70
2023-02-27T04:07:08.995Z,64.49
2023-02-27T04:09:55.627Z,64.34
2023-02-27T04:12:46.111Z,64.05
2023-02-27T04:15:43.689Z,63.93
2023-02-27T04:18:29.393Z,63.66
2023-02-27T04:21:08.436Z,63.54
2023-02-27T04:23:40.442Z,63.48
2023-02-27T04:26:19.505Z,63.13
2023-02-27T04:29:15.243Z,63.16
2023-02-27T04:32:06.760Z,63.19
2023-02-27T04:34:42.431Z,63.00
2023-02-27T04:37:21.389Z,62.91
2023-02-27T04:40:03.314Z,63.02
2023-02-27T04:42:33.168Z,63.04
2023-02-27T04:45:04.763Z,63.03
2023-02-27T04:47:39.519Z,63.09
2023-02-27T04:50:21.969Z,62.90
2023-02-27T04:53:02.772Z,63.06
2023-02-27T04:55:39.912Z,63.00
2023-02-27T04:58:10.437Z,63.08
2023-02-27T05:00:40.300Z,63.28
2023-02-27T05:03:20.611Z,63.42
2023-02-27T05:05:49.746Z,63.63
2023-02-27T05:08:27.020Z,63.71
2023-02-27T05:11:04.462Z,63.67
2023-02-27T05:13:56.965Z,63.70
2023-02-27T05:16:33.241Z,63.64
2023-02-27T05:19:02.221Z,63.57
2023-02-27T05:21:40.683Z,63.56
2023-02-27T05:24:22.608Z,63.42
2023-02-27T05:26:58.270Z,63.43
2023-02-27T05:29:44.891Z,63.20
2023-02-27T05:32:23.704Z,63.04
2023-02-27T05:35:33.962Z,62.95
2023-02-27T05:38:05.200Z,62.82
2023-02-27T05:40:36.740Z,62.66
2023-02-27T05:43:11.313Z,62.50
2023-02-27T05:45:41.229Z,62.23
2023-02-27T05:48:17.828Z,62.40
2023-02-27T05:50:48.465Z,62.39
2023-02-27T05:53:19.192Z,62.23
2023-02-27T05:55:58.893Z,62.12
2023-02-27T05:59:20.714Z,62.09
2023-02-27T06:01:47.477Z,62.24
2023-02-27T06:04:14.522Z,62.25
2023-02-27T06:06:44.427Z,62.32
2023-02-27T06:09:11.326Z,62.41
2023-02-27T06:11:38.058Z,62.41
2023-02-27T06:14:04.768Z,62.44
2023-02-27T06:16:31.574Z,62.51
2023-02-27T06:18:58.322Z,62.33
2023-02-27T06:21:25.163Z,62.41
2023-02-27T06:23:51.927Z,62.39
2023-02-27T06:26:18.643Z,62.38
2023-02-27T06:28:45.360Z,62.42
2023-02-27T06:31:12.168Z,62.45
2023-02-27T06:33:39.119Z,62.41
2023-02-27T06:36:06.237Z,62.76
2023-02-27T06:38:34.084Z,62.70
2023-02-27T06:41:00.873Z,62.87
2023-02-27T06:43:27.657Z,62.76
2023-02-27T06:45:55.048Z,63.05
2023-02-27T06:48:22.267Z,63.18
2023-02-27T06:50:56.622Z,63.18
2023-02-27T06:53:24.492Z,63.36
2023-02-27T06:55:51.319Z,63.06
2023-02-27T06:58:18.562Z,63.17
2023-02-27T07:00:47.424Z,63.34
2023-02-27T07:03:14.589Z,63.10
2023-02-27T07:05:42.278Z,63.19
2023-02-27T07:08:10.288Z,63.14
2023-02-27T07:10:37.062Z,63.28
2023-02-27T07:13:04.050Z,63.27
2023-02-27T07:15:30.855Z,63.37
2023-02-27T07:17:57.564Z,63.24
2023-02-27T07:20:24.340Z,63.57
2023-02-27T07:22:51.153Z,63.65
2023-02-27T07:25:17.947Z,63.75
2023-02-27T07:27:46.183Z,63.73
2023-02-27T07:30:13.428Z,63.67
2023-02-27T07:32:40.309Z,63.56
2023-02-27T07:35:08.271Z,63.85
2023-02-27T07:37:35.036Z,63.90
2023-02-27T07:40:04.051Z,63.78
2023-02-27T07:42:31.048Z,63.87
2023-02-27T07:44:57.883Z,63.53
2023-02-27T07:47:24.585Z,63.59
2023-02-27T07:49:51.279Z,63.65
2023-02-27T07:52:18.189Z,63.62
2023-02-27T07:54:44.834Z,63.30
2023-02-27T07:57:11.618Z,63.29
2023-02-27T07:59:38.504Z,63.20
2023-02-27T08:02:05.182Z,63.22
2023-02-27T08:04:31.973Z,63.17
2023-02-27T08:06:59.040Z,62.99
2023-02-27T08:09:25.689Z,63.08
2023-02-27T08:11:52.503Z,62.85
2023-02-27T08:14:19.218Z,62.95
2023-02-27T08:16:45.847Z,62.67
2023-02-27T08:19:16.349Z,62.42
2023-02-27T08:21:43.060Z,62.54
2023-02-27T08:24:09.755Z,62.62
2023-02-27T08:26:38.196Z,62.60
2023-02-27T08:29:05.035Z,62.51
2023-02-27T08:31:32.927Z,62.49
2023-02-27T08:34:09.478Z,62.46
2023-02-27T08:36:37.445Z,62.32
2023-02-27T08:39:04.553Z,62.20
2023-02-27T08:41:31.377Z,62.13
2023-02-27T08:43:58.257Z,62.04
2023-02-27T08:46:25.493Z,61.97
2023-02-27T08:48:55.215Z,61.86
2023-02-27T08:51:22.090Z,61.70
2023-02-27T08:53:48.908Z,61.68
2023-02-27T08:56:15.616Z,61.81
2023-02-27T08:58:42.543Z,61.58
2023-02-27T09:01:09.335Z,61.66
2023-02-27T09:03:37.420Z,61.55
2023-02-27T09:06:05.386Z,61.85
2023-02-27T09:08:32.368Z,61.65
2023-02-27T09:10:59.295Z,61.57
2023-02-27T09:13:27.276Z,61.42
2023-02-27T09:15:54.380Z,61.41
2023-02-27T09:18:22.048Z,61.09
2023-02-27T09:20:52.617Z,61.08
2023-02-27T09:23:22.372Z,60.92
2023-02-27T09:25:49.347Z,60.75
2023-02-27T09:28:16.382Z,60.58
2023-02-27T09:30:43.201Z,60.35
2023-02-27T09:33:11.362Z,60.32
2023-02-27T09:35:38.812Z,60.48
2023-02-27T09:38:08.700Z,60.18
2023-02-27T09:40:41.393Z,60.16
2023-02-27T09:43:17.476Z,59.86
2023-02-27T09:45:46.035Z,59.68
2023-02-27T09:48:33.348Z,59.31
2023-02-27T09:51:03.039Z,59.30
2023-02-27T09:53:51.484Z,58.77
2023-02-27T09:56:29.992Z,58.44
2023-02-27T09:59:07.435Z,58.29
2023-02-27T10:02:08.696Z,58.08
2023-02-27T10:04:50.271Z,57.70
2023-02-27T10:07:52.630Z,57.72
2023-02-27T10:10:28.475Z,57.93
2023-02-27T10:13:22.059Z,58.05
2023-02-27T10:15:52.111Z,58.55
2023-02-27T10:18:30.649Z,58.86
2023-02-27T10:21:12.843Z,59.03
2023-02-27T10:23:48.547Z,58.99
2023-02-27T10:26:28.194Z,58.86
2023-02-27T10:28:55.028Z,58.84
2023-02-27T10:31:27.425Z,58.70
2023-02-27T10:33:57.217Z,58.81
2023-02-27T10:36:33.684Z,58.79
2023-02-27T10:39:14.865Z,58.82
2023-02-27T10:41:44.012Z,58.53
2023-02-27T10:44:14.708Z,58.89
2023-02-27T10:46:41.988Z,58.70
2023-02-27T10:49:19.697Z,58.69
2023-02-27T10:52:03.872Z,58.58
2023-02-27T10:54:30.676Z,58.04
2023-02-27T10:57:01.101Z,57.26
2023-02-27T10:59:37.488Z,56.85
2023-02-27T11:02:22.714Z,56.02
2023-02-27T11:04:55.246Z,56.11
2023-02-27T11:07:34.837Z,55.80
2023-02-27T11:10:13.919Z,55.95
2023-02-27T11:12:42.621Z,56.13
2023-02-27T11:15:15.136Z,56.09
2023-02-27T11:17:43.311Z,56.18
2023-02-27T11:20:34.023Z,55.92
2023-02-27T11:23:14.807Z,56.03
2023-02-27T11:25:43.265Z,55.26
2023-02-27T11:28:28.911Z,55.03
2023-02-27T11:30:58.863Z,54.73
2023-02-27T11:33:27.400Z,54.98
2023-02-27T11:35:58.458Z,54.45
2023-02-27T11:38:28.431Z,54.48
2023-02-27T11:41:07.817Z,54.59
2023-02-27T11:43:47.060Z,54.80
2023-02-27T11:46:41.182Z,54.89
2023-02-27T11:49:20.619Z,55.52
2023-02-27T11:51:50.052Z,55.39
2023-02-27T11:54:41.313Z,55.19
2023-02-27T11:57:22.370Z,55.24
2023-02-27T12:00:02.902Z,54.73
2023-02-27T12:02:39.356Z,54.43
2023-02-27T12:05:45.369Z,53.69
2023-02-27T12:08:18.828Z,54.08
2023-02-27T12:11:12.910Z,54.17
2023-02-27T12:13:43.208Z,54.25
2023-02-27T12:16:34.585Z,54.11
2023-02-27T12:19:18.491Z,54.15
2023-02-27T12:21:50.243Z,54.43
2023-02-27T12:24:36.695Z,54.08
2023-02-27T12:27:16.552Z,53.81
2023-02-27T12:30:13.390Z,53.24
2023-02-27T12:32:49.854Z,53.03
2023-02-27T12:35:29.518Z,52.79
2023-02-27T12:37:58.204Z,52.84
2023-02-27T12:40:31.312Z,52.49
2023-02-27T12:43:08.160Z,51.91
2023-02-27T12:46:19.194Z,52.13
2023-02-27T12:49:27.783Z,52.17
2023-02-27T12:52:19.306Z,51.97
2023-02-27T12:55:14.956Z,52.18
2023-02-27T12:58:07.012Z,52.29
2023-02-27T13:00:46.478Z,52.52
2023-02-27T13:03:20.721Z,53.21
2023-02-27T13:05:58.408Z,53.61
2023-02-27T13:08:43.540Z,54.18
2023-02-27T13:11:22.204Z,54.90
2023-02-27T13:14:40.575Z,55.40
2023-02-27T13:17:18.068Z,54.68
2023-02-27T13:19:50.303Z,54.67
2023-02-27T13:22:33.856Z,54.63
2023-02-27T13:25:05.432Z,54.56
2023-02-27T13:27:37.003Z,54.68
2023-02-27T13:30:03.686Z,54.37
2023-02-27T13:32:44.422Z,54.18
2023-02-27T13:35:28.624Z,53.86
2023-02-27T13:38:05.703Z,53.67
2023-02-27T13:40:41.452Z,53.61
2023-02-27T13:43:51.419Z,53.57
2023-02-27T13:46:24.193Z,53.90
2023-02-27T13:49:06.661Z,54.16
2023-02-27T13:51:39.972Z,54.40
2023-02-27T13:54:13.082Z,54.80
2023-02-27T13:57:05.272Z,55.34
2023-02-27T13:59:36.718Z,55.64
2023-02-27T14:02:31.071Z,55.67
2023-02-27T14:05:03.253Z,55.59
2023-02-27T14:07:34.636Z,55.41
2023-02-27T14:10:11.776Z,54.75
2023-02-27T14:12:46.338Z,54.21
2023-02-27T14:15:22.891Z,53.56
2023-02-27T14:18:13.856Z,53.54
2023-02-27T14:20:44.952Z,53.48
2023-02-27T14:23:17.644Z,53.49
2023-02-27T14:26:16.716Z,54.11
2023-02-27T14:28:55.813Z,54.40
2023-02-27T14:31:32.694Z,54.72
2023-02-27T14:34:05.374Z,55.03
2023-02-27T14:36:46.123Z,55.33
2023-02-27T14:39:32.122Z,55.66
2023-02-27T14:42:04.958Z,56.15
2023-02-27T14:44:41.777Z,56.58
2023-02-27T14:47:15.571Z,56.71
2023-02-27T14:49:43.046Z,57.19
2023-02-27T14:52:31.280Z,57.86
2023-02-27T14:55:30.038Z,58.54
2023-02-27T14:58:00.853Z,58.61
2023-02-27T15:00:33.869Z,59.30
2023-02-27T15:03:10.948Z,59.01
2023-02-27T15:05:39.113Z,59.42
2023-02-27T15:08:06.023Z,58.93
2023-02-27T15:10:33.491Z,58.82
2023-02-27T15:13:03.839Z,57.98
2023-02-27T15:15:31.948Z,57.66
2023-02-27T15:17:59.554Z,56.52
2023-02-27T15:20:30.161Z,54.73
2023-02-27T15:23:04.419Z,53.46
2023-02-27T15:25:40.384Z,52.78
2023-02-27T15:28:17.176Z,52.45
2023-02-27T15:30:48.774Z,51.42
2023-02-27T15:33:16.594Z,50.94
2023-02-27T15:35:45.651Z,50.46
2023-02-27T15:38:31.175Z,50.82
2023-02-27T15:41:00.042Z,50.86
2023-02-27T15:43:28.240Z,51.33
2023-02-27T15:45:56.374Z,52.20
2023-02-27T15:48:23.953Z,52.80
2023-02-27T15:51:10.535Z,53.07
2023-02-27T15:53:37.382Z,53.46
2023-02-27T15:56:09.494Z,53.63
2023-02-27T15:58:49.298Z,54.15
2023-02-27T16:01:24.708Z,53.98
2023-02-27T16:03:58.029Z,54.22
2023-02-27T16:06:35.311Z,54.23
2023-02-27T16:09:05.454Z,53.83
2023-02-27T16:11:40.084Z,54.25
2023-02-27T16:14:08.978Z,54.17
2023-02-27T16:16:37.630Z,54.09
2023-02-27T16:19:26.707Z,54.06
2023-02-27T16:22:13.953Z,53.83
2023-02-27T16:24:41.679Z,54.19
2023-02-27T16:27:22.641Z,54.06
2023-02-27T16:29:50.222Z,54.37
2023-02-27T16:32:24.443Z,54.41
2023-02-27T16:35:06.163Z,54.38
2023-02-27T16:37:38.747Z,54.58
2023-02-27T16:40:20.633Z,54.98
2023-02-27T16:42:47.366Z,54.97
2023-02-27T16:45:23.499Z,55.47
2023-02-27T16:47:52.190Z,55.48
2023-02-27T16:50:29.214Z,55.95
2023-02-27T16:52:57.303Z,56.13
2023-02-27T16:55:25.390Z,56.48
2023-02-27T16:57:52.537Z,56.83
2023-02-27T17:00:20.426Z,56.80
2023-02-27T17:02:48.312Z,56.84
2023-02-27T17:05:15.666Z,57.22
2023-02-27T17:07:43.134Z,57.38
2023-02-27T17:10:15.170Z,57.62
2023-02-27T17:12:43.761Z,57.35
2023-02-27T17:15:10.872Z,57.30
2023-02-27T17:17:37.588Z,57.19
2023-02-27T17:20:07.507Z,56.88
2023-02-27T17:22:39.604Z,56.67
2023-02-27T17:25:07.749Z,56.28
2023-02-27T17:27:35.166Z,56.38
2023-02-27T17:30:02.358Z,56.06
2023-02-27T17:32:29.261Z,56.04
2023-02-27T17:34:56.912Z,55.90
2023-02-27T17:37:23.666Z,56.12
2023-02-27T17:39:50.500Z,55.96
2023-02-27T17:42:18.769Z,56.47
2023-02-27T17:44:48.884Z,56.70
2023-02-27T17:47:15.790Z,56.83
2023-02-27T17:49:42.627Z,57.11
2023-02-27T17:52:09.522Z,57.41
2023-02-27T17:54:36.704Z,57.39
2023-02-27T17:57:06.894Z,57.43
2023-02-27T17:59:33.686Z,57.56
2023-02-27T18:02:00.352Z,57.86
2023-02-27T18:04:27.678Z,57.64
2023-02-27T18:06:54.480Z,57.73
2023-02-27T18:09:21.331Z,57.69
2023-02-27T18:11:48.141Z,57.69
2023-02-27T18:14:15.195Z,57.71
2023-02-27T18:16:42.727Z,57.33
2023-02-27T18:19:09.596Z,57.23
2023-02-27T18:21:36.441Z,57.36
2023-02-27T18:24:04.322Z,57.07
2023-02-27T18:26:33.121Z,56.98
2023-02-27T18:29:06.579Z,56.87
2023-02-27T18:31:40.375Z,56.78
2023-02-27T18:34:07.906Z,56.69
2023-02-27T18:36:35.885Z,56.89
2023-02-27T18:39:05.144Z,56.86
2023-02-27T18:41:32.792Z,56.80
2023-02-27T18:43:59.655Z,56.98
2023-02-27T18:46:27.907Z,57.30
2023-02-27T18:48:55.471Z,57.31
2023-02-27T18:51:22.256Z,57.50
2023-02-27T18:53:50.176Z,57.52
2023-02-27T18:56:22.776Z,57.76
2023-02-27T18:58:50.519Z,57.82
2023-02-27T19:01:24.024Z,58.08
2023-02-27T19:03:51.320Z,58.10
2023-02-27T19:06:18.117Z,58.37
2023-02-27T19:08:45.804Z,58.46
2023-02-27T19:11:22.035Z,58.70
2023-02-27T19:13:49.144Z,58.66
2023-02-27T19:16:16.788Z,58.93
2023-02-27T19:18:43.617Z,59.14
2023-02-27T19:21:10.779Z,59.06
2023-02-27T19:23:38.925Z,59.44
2023-02-27T19:26:05.614Z,59.47
2023-02-27T19:28:33.388Z,59.73
2023-02-27T19:31:00.160Z,59.83
2023-02-27T19:33:26.856Z,60.08
2023-02-27T19:35:53.856Z,60.08
2023-02-27T19:38:20.656Z,60.32
2023-02-27T19:40:47.332Z,60.46
2023-02-27T19:43:15.674Z,60.79
2023-02-27T19:45:42.498Z,60.72
2023-02-27T19:48:11.366Z,60.88
2023-02-27T19:50:40.338Z,61.17
2023-02-27T19:53:07.186Z,61.07
2023-02-27T19:55:33.912Z,61.46
2023-02-27T19:58:00.808Z,61.47
2023-02-27T20:00:27.473Z,61.45
2023-02-27T20:02:54.126Z,61.70
2023-02-27T20:05:21.524Z,61.84
2023-02-27T20:07:48.478Z,62.09
2023-02-27T20:10:15.912Z,62.15
2023-02-27T20:12:43.155Z,62.25
2023-02-27T20:15:11.806Z,62.35
2023-02-27T20:17:39.904Z,62.44
2023-02-27T20:20:07.488Z,62.68
2023-02-27T20:22:34.322Z,62.89
2023-02-27T20:25:02.371Z,63.01
2023-02-27T20:27:29.307Z,63.19
2023-02-27T20:29:57.518Z,63.21
2023-02-27T20:32:24.737Z,63.55
2023-02-27T20:34:52.599Z,63.59
2023-02-27T20:37:20.904Z,63.82
2023-02-27T20:39:49.073Z,63.63
2023-02-27T20:42:15.921Z,64.04
2023-02-27T20:44:42.874Z,64.03
2023-02-27T20:47:09.724Z,64.12
2023-02-27T20:49:36.856Z,64.51
2023-02-27T20:52:03.809Z,64.65
2023-02-27T20:54:30.812Z,64.51
2023-02-27T20:56:57.703Z,64.61
2023-02-27T20:59:25.576Z,64.78
2023-02-27T21:01:53.212Z,64.94
2023-02-27T21:04:42.601Z,65.04
2023-02-27T21:07:21.520Z,65.17
2023-02-27T21:09:48.738Z,65.25
2023-02-27T21:12:16.342Z,65.30
2023-02-27T21:14:44.608Z,65.50
2023-02-27T21:17:12.535Z,65.73
2023-02-27T21:19:40.020Z,65.63
2023-02-27T21:22:11.009Z,65.36
2023-02-27T21:24:38.064Z,65.62
2023-02-27T21:27:04.786Z,65.79
2023-02-27T21:29:31.731Z,65.82
2023-02-27T21:31:58.483Z,65.82
2023-02-27T21:34:27.843Z,65.85
2023-02-27T21:36:55.530Z,66.10
2023-02-27T21:39:28.330Z,66.08
2023-02-27T21:41:55.425Z,66.19
2023-02-27T21:44:26.778Z,66.14
2023-02-27T21:46:54.364Z,66.02
2023-02-27T21:49:29.332Z,65.94
2023-02-27T21:51:57.259Z,66.18
2023-02-27T21:54:25.015Z,65.92
2023-02-27T21:56:52.038Z,65.84
2023-02-27T21:59:20.330Z,66.09
2023-02-27T22:01:48.331Z,65.95
2023-02-27T22:04:17.348Z,65.82
2023-02-27T22:06:45.243Z,65.81
2023-02-27T22:09:12.275Z,66.00
2023-02-27T22:11:41.009Z,65.92
2023-02-27T22:14:09.674Z,66.10
2023-02-27T22:16:36.445Z,66.07
2023-02-27T22:19:07.735Z,66.18
2023-02-27T22:21:35.508Z,66.30
2023-02-27T22:24:02.527Z,66.37
2023-02-27T22:26:29.665Z,66.05
2023-02-27T22:28:57.663Z,66.16
2023-02-27T22:31:27.068Z,66.52
2023-02-27T22:34:00.813Z,66.36
2023-02-27T22:36:29.482Z,66.59
2023-02-27T22:38:56.783Z,66.63
2023-02-27T22:41:29.569Z,66.62
2023-02-27T22:43:58.586Z,66.65
2023-02-27T22:46:35.094Z,66.73
2023-02-27T22:49:05.185Z,66.81
2023-02-27T22:51:32.465Z,66.55
2023-02-27T22:54:03.043Z,66.80
2023-02-27T22:56:32.938Z,66.75
2023-02-27T22:59:00.024Z,66.81
2023-02-27T23:01:29.781Z,66.47
2023-02-27T23:04:03.130Z,66.75
2023-02-27T23:06:33.100Z,66.80
2023-02-27T23:09:01.475Z,66.88
2023-02-27T23:11:28.731Z,66.86
2023-02-27T23:13:55.738Z,66.77
2023-02-27T23:16:22.542Z,66.82
2023-02-27T23:18:56.315Z,67.02
2023-02-27T23:21:30.095Z,67.17
2023-02-27T23:23:57.680Z,66.90
2023-02-27T23:26:28.623Z,67.02
2023-02-27T23:28:57.309Z,67.00
2023-02-27T23:31:24.303Z,67.12
2023-02-27T23:33:51.022Z,67.07
2023-02-27T23:36:18.050Z,67.13
2023-02-27T23:38:46.693Z,67.17
2023-02-27T23:41:17.399Z,67.29
2023-02-27T23:43:47.045Z,67.30
2023-02-27T23:46:15.715Z,67.16
2023-02-27T23:48:43.200Z,67.46
2023-02-27T23:51:11.478Z,67.18
2023-02-27T23:53:40.375Z,67.34
2023-02-27T23:56:17.165Z,67.47
2023-02-27T23:58:45.433Z,67.67
